INDIA METEOROLOGICAL DEPARTMENT, R.M.C. NEW DELHI
Dated:23 - 10 - 2014
METARS


Ahmedabad  
SPECI VAAH 231540Z 00000KT 3000 FU NSC 27/18 Q1012 NOSIG=
Amritsar   
VIAR 231530Z 00000KT 3000 BR NSC 23/19 Q1013=
Aurangabad 
VAAU 231500Z 00000KT 6000 SCT020 SCT025 25/16 Q1016=
Bangalore  
VOBL 231530Z 08005KT 6000 FEW008 SCT012 BKN080 24/24 Q1018 NOSIG=
Baroda     
VABO 231500Z 05003KT 6000 NSC 29/20 Q1012=
Bhopal     
VABP 231500Z 32003KT 6000 FEW025 SCT100 24/16 Q1015=
Bhubaneswar
VEBS 231530Z 00000KT 1200 FU NSC 26/22 Q1013 NOSIG=
Chennai    
VOMM 231540Z 00000KT 2500 BR SCT018 OVC080 25/25 Q1012 NOSIG=
Coimbatore 
VOCB 231530Z 02003KT 4000 -DZ SCT015 OVC080 23/22 Q1016 NOSIG=
Colombo    
VCBI 231540Z 13001KT 9999 FEW018 SCT090 26/23 Q1012 NOSIG=
Delhi      
SPECI VIDP 231530Z 10003KT 1500 R28/29/P2000 FU NSC 26/17 Q1013 NOSIG=
Gaya       
VEGY 231400Z 00000KT 3000 BR NSC 24/20 Q1013=
Hyderabad  
VOHS 231540Z 13003KT 5000 HZ FEW015 SCT200 21/14 Q1017 NOSIG=
Jabalpur   
VAJB 231500Z 14003KT 6000 NSC 24/14 Q1015=
Jaipur     
VIJP 231530Z VRB01KT 1400 R27/P2000N FU BKN035 27/10 Q1014 NOSIG=
Kochi      
VOCI 231530Z 00000KT 4000 HZ FEW010 SCT015 OVC080 24/23 Q1013 NOSIG=
Kolkata    
VECC 231520Z 00000KT 1300 R19L/P2000 RMID/P2000 R01R/P2000 R19R/P2000 FU NSC 27/21 Q1012 NOSIG=
Kozhikode  
VOCL 231530Z 00000KT 3000 HZ SCT003 SCT010 FEW025CB OVC080 25/24 Q1013 NOSIG=
Lucknow    
VILK 231500Z 00000KT 3000 BR NSC 24/21 Q1012 NOSIG=
Madurai    
VOMD 231530Z 01002KT 6000 FEW018 SCT100 25/23 Q1014 =
Mumbai     
VABB 231540Z 32003KT 2500 FU NSC 31/24 Q1012 NOSIG=
Nagpur     
VANP 231540Z 00000KT 4000 HZ NSC 23/13 Q1015 NOSIG=
Patna      
VEPT 231520Z 30002KT 3000 HZ SCT020 26/21 Q1013 NOSIG=
Trichy     
VOTR 231540Z 01005KT 6000 SCT016 BKN080 26/24 Q1013 NOSIG=
Trivandrum 
VOTV 231540Z 00000KT 3500 HZ SCT015 FEW025CB BKN090 25/24 Q1012 NOSIG=
Udaipur    
VAUD 231500Z 00000KT 6000 FEW030 SCT100 25/17 Q1016 NOSIG=
Varanasi   
VIBN 231530Z 00000KT 2500 HZ NSC 24/21 Q1013=
Vizag      
VOVZ 231500Z VRB02KT 5000 BR FEW018 28/25 Q1013 NOSIG=
Male       
VRMM 231500Z 25025KT 9000 SCT017 FEW018CB OVC100 27/25 Q1012 CB SW,W,NW TEMPO 4000 SHRA=
Gan        
VRMG 231500Z 32003KT 9999 FEW018 BKN270 28/25 Q1011=
Kathmandu   
VNKT 231520Z 09004KT 8000 FEW020 16/12 Q1021 NOSIG=
Dhaka      
VGHS 231520Z 00000KT 4000 HZ SCT100 27/20 Q1011 NOSIG=
Colombo     
VCBI 231540Z 13001KT 9999 FEW018 SCT090 26/23 Q1012 NOSIG=
Karachi     
OPKC 231525Z 26005KT 7000 NSC 27/14 Q1013 NOSIG=
Lahore      
OPLA 231525Z 13003KT 5000 HZ NSC 28/16 Q1013=